Time;durP1;ratioP1;P1;durP2;ratioP2;P2;SDS_P1;SDS_P2;PMS_P1;PMS_P2;Temp;Humidity;BMP_temperature;BMP_pressure;BME280_temperature;BME280_humidity;BME280_pressure;Samples;Min_cycle;Max_cycle;Signal;HPM_P1;HPM_P2
2022/06/25 00:01:12;;;;;;;17.25;12.68;;;;;;;-147.27;100.00;65176.34;4977344;28;20054;-50
2022/06/25 00:03:39;;;;;;;11.67;7.97;;;;;;;-147.27;100.00;65176.34;4977240;28;20051;-53
2022/06/25 00:06:05;;;;;;;12.20;7.63;;;;;;;-147.27;100.00;65176.34;4977094;28;20072;-52
2022/06/25 00:08:31;;;;;;;;;;;;;;;-147.27;100.00;65176.34;4977579;28;20036;-49
2022/06/25 00:10:56;;;;;;;11.20;8.10;;;;;;;-147.27;100.00;65176.34;4977484;28;19925;-48
2022/06/25 00:13:22;;;;;;;13.15;8.23;;;;;;;-147.27;100.00;65176.34;4972825;28;20031;-49
2022/06/25 00:15:48;;;;;;;15.90;8.13;;;;;;;-147.27;100.00;65176.34;4975943;28;20039;-51
2022/06/25 00:18:15;;;;;;;12.13;8.93;;;;;;;-147.27;100.00;65176.34;4978453;28;20118;-52
2022/06/25 00:20:41;;;;;;;12.27;8.20;;;;;;;-147.27;100.00;65176.34;4976236;28;20039;-53
2022/06/25 00:23:07;;;;;;;11.07;7.87;;;;;;;-147.27;100.00;65176.34;4976423;28;20050;-49
2022/06/25 00:25:33;;;;;;;11.55;7.45;;;;;;;-147.27;100.00;65176.34;4979229;28;20099;-49
2022/06/25 00:27:58;;;;;;;14.40;8.00;;;;;;;-147.27;100.00;65176.34;4978219;28;20050;-50
2022/06/25 00:30:24;;;;;;;10.73;7.30;;;;;;;-147.27;100.00;65176.34;4996125;28;20054;-50
2022/06/25 00:32:50;;;;;;;10.60;6.67;;;;;;;-147.27;100.00;65176.34;4976950;28;20059;-51
2022/06/25 00:35:16;;;;;;;;;;;;;;;-147.27;100.00;65176.34;4978805;28;20103;-49
2022/06/25 00:37:42;;;;;;;9.53;7.43;;;;;;;-147.27;100.00;65176.34;4979996;28;19914;-50
2022/06/25 00:40:10;;;;;;;12.17;7.23;;;;;;;-147.27;100.00;65176.34;4976105;28;20073;-46
2022/06/25 00:42:41;;;;;;;9.47;6.33;;;;;;;-147.27;100.00;65176.34;4972309;28;20027;-50
2022/06/25 00:45:07;;;;;;;8.73;5.57;;;;;;;-147.27;100.00;65176.34;4981295;28;20058;-48
2022/06/25 00:47:34;;;;;;;9.90;6.17;;;;;;;-147.27;100.00;65176.34;4977180;28;20197;-52
2022/06/25 00:49:59;;;;;;;8.77;5.95;;;;;;;-147.27;100.00;65176.34;4978043;28;20047;-52
2022/06/25 00:52:27;;;;;;;10.40;5.85;;;;;;;-147.27;100.00;65176.34;4977644;28;20050;-50
2022/06/25 00:54:57;;;;;;;8.37;5.27;;;;;;;-147.27;100.00;65176.34;4974501;28;20122;-51
2022/06/25 00:57:25;;;;;;;7.00;5.40;;;;;;;-147.27;100.00;65176.34;4973575;28;20023;-49
2022/06/25 00:59:52;;;;;;;10.93;5.87;;;;;;;-147.27;100.00;65176.34;4977178;28;20030;-48
2022/06/25 01:02:20;;;;;;;9.13;5.00;;;;;;;-147.27;100.00;65176.34;4975025;28;20031;-49
2022/06/25 01:04:47;;;;;;;8.13;5.03;;;;;;;-147.27;100.00;65176.34;4982031;28;20059;-53
2022/06/25 01:07:13;;;;;;;10.07;5.50;;;;;;;-147.27;100.00;65176.34;4984114;28;20088;-55
2022/06/25 01:09:40;;;;;;;7.72;5.22;;;;;;;-147.27;100.00;65176.34;4989662;28;20035;-49
2022/06/25 01:12:07;;;;;;;9.80;5.37;;;;;;;-147.27;100.00;65176.34;4982351;28;20058;-48
2022/06/25 01:14:32;;;;;;;13.37;5.73;;;;;;;-147.27;100.00;65176.34;4977615;28;20182;-47
2022/06/25 01:16:58;;;;;;;6.35;4.72;;;;;;;-147.27;100.00;65176.34;4978287;28;20099;-51
2022/06/25 01:19:24;;;;;;;9.57;5.15;;;;;;;-147.27;100.00;65176.34;4986113;28;20041;-50
2022/06/25 01:21:49;;;;;;;11.75;5.00;;;;;;;-147.27;100.00;65176.34;4996173;28;20050;-53
2022/06/25 01:24:16;;;;;;;5.70;4.30;;;;;;;-147.27;100.00;65176.34;5006941;28;20047;-50
2022/06/25 01:26:41;;;;;;;10.27;5.00;;;;;;;-147.27;100.00;65176.34;4999699;28;20039;-50
2022/06/25 01:29:09;;;;;;;8.57;4.72;;;;;;;-147.27;100.00;65176.34;5008325;28;20044;-53
2022/06/25 01:31:36;;;;;;;7.40;5.10;;;;;;;-147.27;100.00;65176.34;4979083;28;20078;-54
2022/06/25 01:34:03;;;;;;;9.13;5.10;;;;;;;-147.27;100.00;65176.34;5039903;28;20045;-55
2022/06/25 01:36:28;;;;;;;14.75;5.25;;;;;;;-147.27;100.00;65176.34;5049675;28;20046;-51
2022/06/25 01:38:54;;;;;;;;;;;;;;;-147.27;100.00;65176.34;5052449;28;20036;-51
2022/06/25 01:41:20;;;;;;;6.97;4.60;;;;;;;-147.27;100.00;65176.34;5050873;28;19917;-52
2022/06/25 01:43:46;;;;;;;6.75;4.63;;;;;;;-147.27;100.00;65176.34;5046576;28;20053;-54
2022/06/25 01:46:12;;;;;;;7.65;4.75;;;;;;;-147.27;100.00;65176.34;5046782;28;20038;-50
2022/06/25 01:48:39;;;;;;;8.37;4.90;;;;;;;-147.27;100.00;65176.34;5047134;28;20034;-52
2022/06/25 01:51:04;;;;;;;8.35;4.60;;;;;;;-147.27;100.00;65176.34;5046660;28;20044;-52
2022/06/25 01:53:30;;;;;;;11.57;5.38;;;;;;;-147.27;100.00;65176.34;5043209;28;20049;-50
2022/06/25 01:55:56;;;;;;;7.00;4.30;;;;;;;-147.27;100.00;65176.34;5037327;28;20089;-49
2022/06/25 01:58:22;;;;;;;8.65;4.97;;;;;;;-147.27;100.00;65176.34;5045355;28;20029;-50
2022/06/25 02:00:48;;;;;;;;;;;;;;;-147.27;100.00;65176.34;5043914;28;20045;-48
2022/06/25 02:03:15;;;;;;;9.77;4.53;;;;;;;-147.27;100.00;65176.34;5038891;28;19913;-47
2022/06/25 02:05:59;;;;;;;;;;;;;;;-147.27;100.00;65176.34;5038316;28;20029;-51
2022/06/25 02:08:34;;;;;;;7.53;4.40;;;;;;;-147.27;100.00;65176.34;5038214;28;19918;-49
2022/06/25 02:11:01;;;;;;;15.13;5.20;;;;;;;-147.27;100.00;65176.34;5045229;28;20036;-51
2022/06/25 02:13:28;;;;;;;10.40;4.83;;;;;;;-147.27;100.00;65176.34;5044607;28;20041;-48
2022/06/25 02:15:55;;;;;;;8.85;5.18;;;;;;;-147.27;100.00;65176.34;5045072;28;20096;-47
2022/06/25 02:18:21;;;;;;;12.27;5.10;;;;;;;-147.27;100.00;65176.34;5040936;28;20042;-47
2022/06/25 02:20:47;;;;;;;9.07;4.77;;;;;;;-147.27;100.00;65176.34;5043373;28;20093;-47
2022/06/25 02:23:14;;;;;;;;;;;;;;;-147.27;100.00;65176.34;5043232;28;20041;-51
2022/06/25 02:25:40;;;;;;;7.30;4.90;;;;;;;-147.27;100.00;65176.34;5040037;28;19940;-49
2022/06/25 02:28:06;;;;;;;11.88;4.57;;;;;;;-147.27;100.00;65176.34;5042010;28;20041;-53
2022/06/25 02:30:32;;;;;;;;;;;;;;;-147.27;100.00;65176.34;5047755;28;20033;-54
2022/06/25 02:33:01;;;;;;;8.40;4.40;;;;;;;-147.27;100.00;65176.34;5008743;28;19985;-51
2022/06/25 02:35:26;;;;;;;;;;;;;;;-147.27;100.00;65176.34;4960358;28;20027;-48
2022/06/25 02:37:52;;;;;;;7.97;4.43;;;;;;;-147.27;100.00;65176.34;4975846;28;19981;-50
2022/06/25 02:40:21;;;;;;;6.93;4.10;;;;;;;-147.27;100.00;65176.34;4974864;28;20035;-46
2022/06/25 02:42:47;;;;;;;8.27;4.63;;;;;;;-147.27;100.00;65176.34;4960980;28;20043;-48
2022/06/25 02:45:13;;;;;;;6.13;4.32;;;;;;;-147.27;100.00;65176.34;5000377;28;20058;-52
2022/06/25 02:47:44;;;;;;;8.67;3.90;;;;;;;-147.27;100.00;65176.34;4961908;28;20065;-52
2022/06/25 02:50:11;;;;;;;6.83;3.73;;;;;;;-147.27;100.00;65176.34;4986865;28;20035;-50
2022/06/25 02:52:38;;;;;;;8.37;4.27;;;;;;;-147.27;100.00;65176.34;4981257;28;20043;-51
2022/06/25 02:55:05;;;;;;;;;;;;;;;-147.27;100.00;65176.34;5007244;28;20030;-50
2022/06/25 03:00:25;;;;;;;9.83;4.80;;;;;;;-147.27;100.00;65176.34;4986697;28;20027;-49
2022/06/25 03:02:50;;;;;;;10.85;4.82;;;;;;;-147.27;100.00;65176.34;4979495;28;20027;-51
2022/06/25 03:05:16;;;;;;;8.48;4.28;;;;;;;-147.27;100.00;65176.34;4979348;28;20106;-48
2022/06/25 03:07:41;;;;;;;10.68;5.20;;;;;;;-147.27;100.00;65176.34;4998248;28;20039;-47
2022/06/25 03:10:08;;;;;;;8.03;4.70;;;;;;;-147.27;100.00;65176.34;4972819;28;20050;-48
2022/06/25 03:12:35;;;;;;;8.10;4.40;;;;;;;-147.27;100.00;65176.34;5004849;28;20059;-49
2022/06/25 03:15:15;;;;;;;12.63;5.00;;;;;;;-147.27;100.00;65176.34;4987002;28;20157;-49
2022/06/25 03:17:40;;;;;;;8.20;4.72;;;;;;;-147.27;100.00;65176.34;4992675;28;20034;-49
2022/06/25 03:20:44;;;;;;;10.13;4.90;;;;;;;-147.27;100.00;65176.34;4979219;28;20030;-54
2022/06/25 03:23:10;;;;;;;8.57;4.80;;;;;;;-147.27;100.00;65176.34;5007449;28;20064;-47
2022/06/25 03:25:37;;;;;;;9.57;4.77;;;;;;;-147.27;100.00;65176.34;4975802;28;20042;-52
2022/06/25 03:28:04;;;;;;;11.93;5.00;;;;;;;-147.27;100.00;65176.34;4972761;28;20062;-50
2022/06/25 03:30:30;;;;;;;17.70;4.97;;;;;;;-147.27;100.00;65176.34;4986362;28;20039;-52
2022/06/25 03:32:57;;;;;;;11.57;4.57;;;;;;;-147.27;100.00;65176.34;4976069;28;20043;-50
2022/06/25 03:35:44;;;;;;;12.68;4.72;;;;;;;-147.27;100.00;65176.34;4999270;28;20023;-51
2022/06/25 03:38:14;;;;;;;9.07;4.50;;;;;;;-147.27;100.00;65176.34;4988211;28;20015;-54
2022/06/25 03:40:41;;;;;;;13.87;4.80;;;;;;;-147.27;100.00;65176.34;4989500;28;20029;-48
2022/06/25 03:43:08;;;;;;;11.67;5.03;;;;;;;-147.27;100.00;65176.34;4987289;28;20062;-51
2022/06/25 03:45:38;;;;;;;10.17;5.03;;;;;;;-147.27;100.00;65176.34;4995405;28;20035;-52
2022/06/25 03:48:05;;;;;;;6.77;4.37;;;;;;;-147.27;100.00;65176.34;4983779;28;20027;-49
2022/06/25 03:50:38;;;;;;;9.97;4.70;;;;;;;-147.27;100.00;65176.34;4987562;28;20103;-47
2022/06/25 03:53:04;;;;;;;6.80;4.30;;;;;;;-147.27;100.00;65176.34;4999157;28;20035;-50
2022/06/25 03:55:30;;;;;;;8.20;4.63;;;;;;;-147.27;100.00;65176.34;4987663;28;20059;-48
2022/06/25 03:57:56;;;;;;;9.82;4.80;;;;;;;-147.27;100.00;65176.34;4992082;28;20042;-48
2022/06/25 04:00:24;;;;;;;6.03;3.80;;;;;;;-147.27;100.00;65176.34;4999694;28;20087;-49
2022/06/25 04:02:57;;;;;;;6.93;4.07;;;;;;;-147.27;100.00;65176.34;4982845;28;20031;-53
2022/06/25 04:05:29;;;;;;;9.93;4.60;;;;;;;-147.27;100.00;65176.34;4973692;28;20047;-51
2022/06/25 04:08:15;;;;;;;6.43;4.03;;;;;;;-147.27;100.00;65176.34;4976760;28;20165;-48
2022/06/25 04:10:42;;;;;;;7.88;4.18;;;;;;;-147.27;100.00;65176.34;4991052;28;20077;-53
2022/06/25 04:13:08;;;;;;;6.50;3.40;;;;;;;-147.27;100.00;65176.34;4974257;28;20058;-51
2022/06/25 04:15:37;;;;;;;8.53;3.73;;;;;;;-147.27;100.00;65176.34;4989718;28;20037;-52
2022/06/25 04:18:04;;;;;;;9.43;4.70;;;;;;;-147.27;100.00;65176.34;4970486;28;20027;-47
2022/06/25 04:20:32;;;;;;;7.67;3.80;;;;;;;-147.27;100.00;65176.34;4993102;28;20818;-50
2022/06/25 04:22:57;;;;;;;6.40;3.63;;;;;;;-147.27;100.00;65176.34;4987479;28;20035;-50
2022/06/25 04:25:23;;;;;;;8.70;3.85;;;;;;;-147.27;100.00;65176.34;4993153;28;20039;-49
2022/06/25 04:30:34;;;;;;;7.13;3.70;;;;;;;-147.27;100.00;65176.34;4980369;28;20031;-53
2022/06/25 04:32:59;;;;;;;5.80;3.65;;;;;;;-147.27;100.00;65176.34;5041067;28;20053;-49
2022/06/25 04:35:31;;;;;;;11.67;3.80;;;;;;;-147.27;100.00;65176.34;5043575;28;20119;-49
2022/06/25 04:38:03;;;;;;;6.87;4.13;;;;;;;-147.27;100.00;65176.34;5042235;28;20026;-51
2022/06/25 04:40:30;;;;;;;8.23;3.70;;;;;;;-147.27;100.00;65176.34;5047467;28;20028;-49
2022/06/25 04:42:56;;;;;;;;;;;;;;;-147.27;100.00;65176.34;5047752;28;20037;-51
2022/06/25 04:45:22;;;;;;;10.33;4.10;;;;;;;-147.27;100.00;65176.34;5045282;28;19928;-51
2022/06/25 04:48:11;;;;;;;7.47;4.07;;;;;;;-147.27;100.00;65176.34;5041972;28;20464;-49
2022/06/25 04:51:03;;;;;;;12.67;4.07;;;;;;;-147.27;100.00;65176.34;5048302;28;20044;-48
2022/06/25 04:53:30;;;;;;;5.63;3.70;;;;;;;-147.27;100.00;65176.34;5046839;28;20037;-48
2022/06/25 04:55:56;;;;;;;9.80;4.97;;;;;;;-147.27;100.00;65176.34;5046310;28;20105;-51
2022/06/25 04:58:21;;;;;;;6.22;4.18;;;;;;;-147.27;100.00;65176.34;5046629;28;20097;-53
2022/06/25 05:01:05;;;;;;;10.60;4.80;;;;;;;-147.27;100.00;65176.34;5045284;28;20040;-49
2022/06/25 05:03:31;;;;;;;10.65;5.50;;;;;;;-147.27;100.00;65176.34;5045470;28;20025;-48
2022/06/25 05:06:09;;;;;;;12.10;5.27;;;;;;;-147.27;100.00;65176.34;5047919;28;20106;-50
2022/06/25 05:08:35;;;;;;;11.35;5.80;;;;;;;-147.27;100.00;65176.34;5043082;28;20076;-50
2022/06/25 05:11:01;;;;;;;8.80;5.03;;;;;;;-147.27;100.00;65176.34;5045918;28;20041;-52
2022/06/25 05:13:28;;;;;;;13.07;5.57;;;;;;;-147.27;100.00;65176.34;5046340;28;20038;-51
2022/06/25 05:15:54;;;;;;;11.27;4.80;;;;;;;-147.27;100.00;65176.34;5042928;28;20025;-50
2022/06/25 05:18:20;;;;;;;11.90;6.20;;;;;;;-147.27;100.00;65176.34;5046879;28;20033;-53
2022/06/25 05:20:46;;;;;;;10.05;5.05;;;;;;;-147.27;100.00;65176.34;5046463;28;20034;-51
2022/06/25 05:23:12;;;;;;;14.80;4.72;;;;;;;-147.27;100.00;65176.34;5046895;28;20031;-51
2022/06/25 05:25:38;;;;;;;8.63;5.20;;;;;;;-147.27;100.00;65176.34;5046073;28;20139;-51
2022/06/25 05:28:05;;;;;;;10.33;5.60;;;;;;;-147.27;100.00;65176.34;5044557;28;20037;-51
2022/06/25 05:30:31;;;;;;;14.00;5.35;;;;;;;-147.27;100.00;65176.34;5042890;28;20101;-50
2022/06/25 05:32:57;;;;;;;8.68;4.63;;;;;;;-147.27;100.00;65176.34;5008012;28;20043;-54
2022/06/25 05:35:24;;;;;;;14.50;4.40;;;;;;;-147.27;100.00;65176.34;4977808;28;20042;-50
2022/06/25 05:37:50;;;;;;;8.48;5.30;;;;;;;-147.27;100.00;65176.34;4976339;28;21458;-54
2022/06/25 05:40:16;;;;;;;;;;;;;;;-147.27;100.00;65176.34;4962528;28;20045;-48
2022/06/25 05:42:41;;;;;;;7.63;4.73;;;;;;;-147.27;100.00;65176.34;4950922;28;19914;-52
2022/06/25 05:45:07;;;;;;;;;;;;;;;-147.27;100.00;65176.34;4976583;28;20041;-50
2022/06/25 05:47:33;;;;;;;9.60;4.03;;;;;;;-147.27;100.00;65176.34;4976868;28;19917;-53
2022/06/25 05:49:58;;;;;;;10.43;4.22;;;;;;;-147.27;100.00;65176.34;4977250;28;20047;-52
2022/06/25 05:52:24;;;;;;;7.57;3.97;;;;;;;-147.27;100.00;65176.34;4977062;28;20111;-51
2022/06/25 05:54:49;;;;;;;7.00;4.23;;;;;;;-147.27;100.00;65176.34;4978026;28;20046;-51
2022/06/25 05:57:15;;;;;;;9.13;4.15;;;;;;;-147.27;100.00;65176.34;4976589;28;20339;-53
2022/06/25 05:59:41;;;;;;;7.53;4.03;;;;;;;-147.27;100.00;65176.34;4973921;28;20098;-48
2022/06/25 06:02:07;;;;;;;8.52;3.58;;;;;;;-147.27;100.00;65176.34;4977908;28;20035;-51
2022/06/25 06:04:33;;;;;;;7.82;3.55;;;;;;;-147.27;100.00;65176.34;4974710;28;20031;-50
2022/06/25 06:07:02;;;;;;;8.95;3.80;;;;;;;-147.27;100.00;65176.34;4976786;28;20046;-49
2022/06/25 06:09:29;;;;;;;14.73;3.70;;;;;;;-147.27;100.00;65176.34;4977040;28;20102;-51
2022/06/25 06:11:55;;;;;;;5.53;3.72;;;;;;;-147.27;100.00;65176.34;4977227;28;20058;-51
2022/06/25 06:14:22;;;;;;;10.73;3.13;;;;;;;-147.27;100.00;65176.34;4975917;28;20054;-50
2022/06/25 06:16:48;;;;;;;6.03;3.20;;;;;;;-147.27;100.00;65176.34;4973671;28;20035;-50
2022/06/25 06:19:13;;;;;;;;;;;;;;;-147.27;100.00;65176.34;4978750;28;20053;-48
2022/06/25 06:21:39;;;;;;;6.73;3.23;;;;;;;-147.27;100.00;65176.34;4975026;28;19914;-48
2022/06/25 06:24:04;;;;;;;7.75;3.92;;;;;;;-147.27;100.00;65176.34;4977687;28;20039;-50
2022/06/25 06:26:30;;;;;;;;;;;;;;;-147.27;100.00;65176.34;4976387;28;20035;-47
2022/06/25 06:28:55;;;;;;;6.10;3.27;;;;;;;-147.27;100.00;65176.34;4978007;28;19928;-48
2022/06/25 06:31:21;;;;;;;9.60;3.40;;;;;;;-147.27;100.00;65176.34;4974835;28;20040;-49
2022/06/25 06:33:47;;;;;;;7.20;2.90;;;;;;;-147.27;100.00;65176.34;5030970;28;20045;-52
2022/06/25 06:36:13;;;;;;;6.00;3.78;;;;;;;-147.27;100.00;65176.34;5045473;28;20048;-50
2022/06/25 06:38:39;;;;;;;7.23;3.17;;;;;;;-147.27;100.00;65176.34;5046058;28;20056;-50
2022/06/25 06:41:04;;;;;;;6.15;3.35;;;;;;;-147.27;100.00;65176.34;5044742;28;20033;-50
2022/06/25 06:43:30;;;;;;;6.65;3.75;;;;;;;-147.27;100.00;65176.34;5044763;28;20072;-49
2022/06/25 06:45:56;;;;;;;5.97;3.65;;;;;;;-147.27;100.00;65176.34;5044806;28;20033;-51
2022/06/25 06:48:21;;;;;;;4.90;2.70;;;;;;;-147.27;100.00;65176.34;5045283;28;20135;-50
2022/06/25 06:50:47;;;;;;;9.82;3.42;;;;;;;-147.27;100.00;65176.34;5043815;28;20037;-50
2022/06/25 06:53:12;;;;;;;5.55;3.10;;;;;;;-147.27;100.00;65176.34;5042445;28;20045;-48
2022/06/25 06:55:38;;;;;;;5.78;3.20;;;;;;;-147.27;100.00;65176.34;5037790;28;20053;-51
2022/06/25 06:58:03;;;;;;;7.57;3.53;;;;;;;-147.27;100.00;65176.34;5044269;28;20038;-48
2022/06/25 07:00:29;;;;;;;7.85;3.00;;;;;;;-147.27;100.00;65176.34;5040361;28;20163;-52
2022/06/25 07:02:54;;;;;;;8.63;3.05;;;;;;;-147.27;100.00;65176.34;5038115;28;20065;-51
2022/06/25 07:05:20;;;;;;;7.63;3.03;;;;;;;-147.27;100.00;65176.34;5043977;28;20045;-52
2022/06/25 07:07:47;;;;;;;9.70;3.23;;;;;;;-147.27;100.00;65176.34;5038472;28;20109;-52
2022/06/25 07:10:14;;;;;;;8.07;3.77;;;;;;;-147.27;100.00;65176.34;5044615;28;20041;-53
2022/06/25 07:12:39;;;;;;;7.78;3.05;;;;;;;-147.27;100.00;65176.34;5037920;28;20030;-50
2022/06/25 07:15:06;;;;;;;7.38;2.80;;;;;;;-147.27;100.00;65176.34;5043207;28;20045;-49
2022/06/25 07:17:31;;;;;;;;;;;;;;;-147.27;100.00;65176.34;5035134;28;20029;-53
2022/06/25 07:19:56;;;;;;;7.47;3.03;;;;;;;-147.27;100.00;65176.34;5037457;28;19917;-54
2022/06/25 07:22:22;;;;;;;10.45;2.80;;;;;;;-147.27;100.00;65176.34;5040436;28;20064;-49
2022/06/25 07:24:48;;;;;;;14.18;3.22;;;;;;;-147.27;100.00;65176.34;5040181;28;20069;-55
2022/06/25 07:27:14;;;;;;;;;;;;;;;-147.27;100.00;65176.34;5035952;28;20035;-49
2022/06/25 07:29:39;;;;;;;5.23;3.03;;;;;;;-147.27;100.00;65176.34;5039794;28;19957;-49
2022/06/25 07:32:05;;;;;;;11.65;3.15;;;;;;;-147.27;100.00;65176.34;5031185;28;20048;-52
2022/06/25 07:34:32;;;;;;;;;;;;;;;-147.27;100.00;65176.34;4975019;28;20038;-53
2022/06/25 07:36:57;;;;;;;9.27;3.33;;;;;;;-147.27;100.00;65176.34;4958371;28;19937;-52
2022/06/25 07:39:23;;;;;;;7.22;3.20;;;;;;;-147.27;100.00;65176.34;4969310;28;20040;-51
2022/06/25 07:41:48;;;;;;;8.27;3.25;;;;;;;-147.27;100.00;65176.34;4979530;28;20054;-49
2022/06/25 07:44:14;;;;;;;8.55;3.10;;;;;;;-147.27;100.00;65176.34;4976873;28;20126;-52
2022/06/25 07:46:39;;;;;;;6.53;2.95;;;;;;;-147.27;100.00;65176.34;4975913;28;20225;-47
2022/06/25 07:49:07;;;;;;;9.02;2.72;;;;;;;-147.27;100.00;65176.34;4973722;28;20036;-49
2022/06/25 07:54:17;;;;;;;5.20;2.97;;;;;;;-147.27;100.00;65176.34;4982164;28;20104;-50
2022/06/25 07:56:42;;;;;;;8.57;2.75;;;;;;;-147.27;100.00;65176.34;4976869;28;20031;-50
2022/06/25 07:59:08;;;;;;;5.80;2.80;;;;;;;-147.27;100.00;65176.34;4979562;28;20062;-48
2022/06/25 08:01:33;;;;;;;5.55;2.15;;;;;;;-147.27;100.00;65176.34;4979274;28;20140;-51
2022/06/25 08:03:59;;;;;;;6.88;3.25;;;;;;;-147.27;100.00;65176.34;4975301;28;20146;-49
2022/06/25 08:06:24;;;;;;;5.30;2.80;;;;;;;-147.27;100.00;65176.34;4971459;28;20051;-49
2022/06/25 08:08:49;;;;;;;7.50;3.38;;;;;;;-147.27;100.00;65176.34;4978298;28;20155;-51
2022/06/25 08:11:15;;;;;;;3.92;2.72;;;;;;;-147.27;100.00;65176.34;4979599;28;20043;-49
2022/06/25 08:13:41;;;;;;;5.07;3.17;;;;;;;-147.27;100.00;65176.34;4980957;28;20045;-49
2022/06/25 08:16:09;;;;;;;7.85;3.05;;;;;;;-147.27;100.00;65176.34;4982953;28;20095;-52
2022/06/25 08:18:38;;;;;;;6.00;3.50;;;;;;;-147.27;100.00;65176.34;4979296;28;20027;-52
2022/06/25 08:21:05;;;;;;;6.53;2.90;;;;;;;-147.27;100.00;65176.34;4975385;28;20035;-48
2022/06/25 08:23:30;;;;;;;8.17;2.83;;;;;;;-147.27;100.00;65176.34;4978875;28;20066;-49
2022/06/25 08:25:55;;;;;;;5.63;3.17;;;;;;;-147.27;100.00;65176.34;4985479;28;20035;-53
2022/06/25 08:28:23;;;;;;;9.60;5.03;;;;;;;-147.27;100.00;65176.34;4982281;28;20101;-51
2022/06/25 08:30:48;;;;;;;6.97;2.80;;;;;;;-147.27;100.00;65176.34;4977121;28;20123;-54
2022/06/25 08:33:14;;;;;;;5.80;2.88;;;;;;;-147.27;100.00;65176.34;4976007;28;20059;-50
2022/06/25 08:35:40;;;;;;;6.10;3.72;;;;;;;-147.27;100.00;65176.34;4982631;28;20111;-53
2022/06/25 08:38:06;;;;;;;4.28;3.17;;;;;;;-147.27;100.00;65176.34;4979515;28;20031;-53
2022/06/25 08:40:32;;;;;;;9.05;3.95;;;;;;;-147.27;100.00;65176.34;4984366;28;20046;-54
2022/06/25 08:42:58;;;;;;;6.53;3.83;;;;;;;-147.27;100.00;65176.34;4982484;28;20034;-51
2022/06/25 08:45:23;;;;;;;6.30;3.90;;;;;;;-147.27;100.00;65176.34;4984099;28;20099;-50
2022/06/25 08:47:51;;;;;;;8.05;3.88;;;;;;;-147.27;100.00;65176.34;4979069;28;20108;-49
2022/06/25 08:50:23;;;;;;;6.90;3.97;;;;;;;-147.27;100.00;65176.34;4981047;28;20035;-47
2022/06/25 08:52:52;;;;;;;10.87;3.73;;;;;;;-147.27;100.00;65176.34;4978846;28;20034;-51
2022/06/25 08:55:32;;;;;;;8.83;3.77;;;;;;;-147.27;100.00;65176.34;4978730;28;20031;-51
2022/06/25 08:57:59;;;;;;;10.47;3.43;;;;;;;-147.27;100.00;65176.34;4980764;28;20470;-50
2022/06/25 09:00:25;;;;;;;9.03;3.43;;;;;;;-147.27;100.00;65176.34;4981751;28;20038;-53
2022/06/25 09:02:51;;;;;;;5.27;2.50;;;;;;;-147.27;100.00;65176.34;4984101;28;20039;-49
2022/06/25 09:05:24;;;;;;;4.47;2.67;;;;;;;-147.27;100.00;65176.34;4981402;28;20031;-50
2022/06/25 09:07:57;;;;;;;7.80;2.40;;;;;;;-147.27;100.00;65176.34;4981314;28;20045;-51
2022/06/25 09:10:24;;;;;;;6.20;2.57;;;;;;;-147.27;100.00;65176.34;4982060;28;20072;-50
2022/06/25 09:12:55;;;;;;;4.23;2.20;;;;;;;-147.27;100.00;65176.34;4981963;28;20049;-54
2022/06/25 09:15:42;;;;;;;3.60;2.07;;;;;;;-147.27;100.00;65176.34;4980053;28;20035;-50
2022/06/25 09:18:13;;;;;;;4.80;2.42;;;;;;;-147.27;100.00;65176.34;4975204;28;20073;-54
2022/06/25 09:20:57;;;;;;;6.53;2.70;;;;;;;-147.27;100.00;65176.34;4977345;28;20070;-49
2022/06/25 09:23:23;;;;;;;5.97;2.67;;;;;;;-147.27;100.00;65176.34;4978166;28;20080;-53
2022/06/25 09:26:06;;;;;;;;;;;;;;;-147.27;100.00;65176.34;4981068;28;20023;-53
2022/06/25 09:28:35;;;;;;;6.97;3.03;;;;;;;-147.27;100.00;65176.34;4981432;28;19925;-54
2022/06/25 09:31:02;;;;;;;3.83;2.47;;;;;;;-147.27;100.00;65176.34;4981611;28;20058;-49
2022/06/25 09:33:30;;;;;;;8.50;2.70;;;;;;;-147.27;100.00;65176.34;4979146;28;20051;-51
2022/06/25 09:35:56;;;;;;;6.17;2.70;;;;;;;-147.27;100.00;65176.34;4978615;28;20030;-53
2022/06/25 09:38:22;;;;;;;5.47;2.87;;;;;;;-147.27;100.00;65176.34;4980590;28;20035;-51
2022/06/25 09:40:50;;;;;;;4.83;2.57;;;;;;;-147.27;100.00;65176.34;4979028;28;20051;-47
2022/06/25 09:43:20;;;;;;;7.87;3.40;;;;;;;-147.27;100.00;65176.34;4976663;28;20027;-50
2022/06/25 09:45:48;;;;;;;6.10;2.70;;;;;;;-147.27;100.00;65176.34;4979088;28;20031;-53
2022/06/25 09:48:25;;;;;;;5.60;2.80;;;;;;;-147.27;100.00;65176.34;4979746;28;20031;-51
2022/06/25 09:51:10;;;;;;;8.27;3.37;;;;;;;-147.27;100.00;65176.34;4979888;28;20107;-51
2022/06/25 09:54:03;;;;;;;4.57;2.30;;;;;;;-147.27;100.00;65176.34;4978498;28;20027;-52
2022/06/25 09:56:32;;;;;;;7.13;2.23;;;;;;;-147.27;100.00;65176.34;4977058;28;20031;-54
2022/06/25 09:58:59;;;;;;;6.50;2.50;;;;;;;-147.27;100.00;65176.34;4978926;28;20094;-51
2022/06/25 10:01:28;;;;;;;6.23;2.00;;;;;;;-147.27;100.00;65176.34;4975430;28;20026;-54
2022/06/25 10:03:55;;;;;;;2.38;1.83;;;;;;;-147.27;100.00;65176.34;4979101;28;20038;-52
2022/06/25 10:06:22;;;;;;;4.07;1.67;;;;;;;-147.27;100.00;65176.34;4976820;28;20038;-51
2022/06/25 10:08:55;;;;;;;4.50;1.90;;;;;;;-147.27;100.00;65176.34;4974853;28;20054;-50
2022/06/25 10:11:25;;;;;;;4.10;1.60;;;;;;;-147.27;100.00;65176.34;4976033;28;20038;-50
2022/06/25 10:13:52;;;;;;;7.57;2.10;;;;;;;-147.27;100.00;65176.34;4975729;28;20041;-51
2022/06/25 10:16:19;;;;;;;6.93;2.00;;;;;;;-147.27;100.00;65176.34;4977378;28;20035;-51
2022/06/25 10:18:45;;;;;;;5.07;2.10;;;;;;;-147.27;100.00;65176.34;4977305;28;20023;-51
2022/06/25 10:21:12;;;;;;;9.10;2.57;;;;;;;-147.27;100.00;65176.34;4977888;28;20131;-51
2022/06/25 10:23:39;;;;;;;12.50;2.63;;;;;;;-147.27;100.00;65176.34;4978278;28;20038;-48
2022/06/25 10:26:05;;;;;;;2.93;1.87;;;;;;;-147.27;100.00;65176.34;4979508;28;20036;-50
2022/06/25 10:28:34;;;;;;;7.37;2.50;;;;;;;-147.27;100.00;65176.34;4975090;28;20056;-49
2022/06/25 10:31:04;;;;;;;4.83;2.20;;;;;;;-147.27;100.00;65176.34;4978729;28;20036;-48
2022/06/25 10:33:50;;;;;;;6.43;2.17;;;;;;;-147.27;100.00;65176.34;4978060;28;20058;-50
2022/06/25 10:36:15;;;;;;;3.90;2.00;;;;;;;-147.27;100.00;65176.34;4982504;28;20031;-53
2022/06/25 10:38:41;;;;;;;;;;;;;;;-147.27;100.00;65176.34;4976513;28;20062;-53
2022/06/25 10:43:58;;;;;;;7.60;2.20;;;;;;;-147.27;100.00;65176.34;4977786;28;20142;-51
2022/06/25 10:46:31;;;;;;;5.03;2.00;;;;;;;-147.27;100.00;65176.34;4980939;28;24008;-53
2022/06/25 10:49:08;;;;;;;4.43;1.53;;;;;;;-147.27;100.00;65176.34;4979045;28;20046;-52
2022/06/25 10:51:41;;;;;;;;;;;;;;;-147.27;100.00;65176.34;4976881;28;20384;-53
2022/06/25 10:54:12;;;;;;;2.93;1.20;;;;;;;-147.27;100.00;65176.34;4978453;28;19918;-53
2022/06/25 10:56:48;;;;;;;3.60;1.50;;;;;;;-147.27;100.00;65176.34;4975344;28;20058;-54
2022/06/25 10:59:34;;;;;;;6.00;1.50;;;;;;;-147.27;100.00;65176.34;4977440;28;20023;-52
2022/06/25 11:02:02;;;;;;;5.17;1.20;;;;;;;-147.27;100.00;65176.34;4975731;28;20057;-48
2022/06/25 11:04:28;;;;;;;5.07;1.50;;;;;;;-147.27;100.00;65176.34;4979408;28;20035;-49
2022/06/25 11:07:11;;;;;;;4.20;1.47;;;;;;;-147.27;100.00;65176.34;4977184;28;20037;-52
2022/06/25 11:09:39;;;;;;;6.10;1.50;;;;;;;-147.27;100.00;65176.34;4976911;28;20035;-48
2022/06/25 11:12:06;;;;;;;1.83;1.20;;;;;;;-147.27;100.00;65176.34;4976388;28;20027;-49
2022/06/25 11:14:32;;;;;;;3.45;1.52;;;;;;;-147.27;100.00;65176.34;4980018;28;20045;-50
2022/06/25 11:17:07;;;;;;;15.77;3.35;;;;;;;-147.27;100.00;65176.34;4979750;28;20062;-47
2022/06/25 11:19:32;;;;;;;4.03;1.20;;;;;;;-147.27;100.00;65176.34;4978941;28;20064;-53
2022/06/25 11:22:01;;;;;;;3.88;1.20;;;;;;;-147.27;100.00;65176.34;4980428;28;20030;-50
2022/06/25 11:24:28;;;;;;;2.83;1.00;;;;;;;-147.27;100.00;65176.34;4979544;28;20153;-50
2022/06/25 11:29:49;;;;;;;4.82;1.20;;;;;;;-147.27;100.00;65176.34;4978116;28;20096;-56